TimeAEST,TemperatureF,Dew PointF,Humidity,Sea Level PressureIn,VisibilityMPH,Wind Direction,Wind SpeedMPH,Gust SpeedMPH,PrecipitationIn,Events,Conditions,WindDirDegrees,DateUTC
12:00 AM,76,73,88,29.86,,South,15.0,,,,Overcast,190,2014-02-23 14:00:00
12:00 AM,75.2,73.4,94,29.86,3.1,South,15.0,-,N/A,Rain,Light Rain Showers,190,2014-02-23 14:00:00
12:30 AM,75.2,73.4,94,29.86,3.7,SSE,9.2,-,N/A,Rain,Light Rain Showers,160,2014-02-23 14:30:00
1:00 AM,77,73,83,29.85,,SSW,9.2,,,,,200,2014-02-23 15:00:00
1:00 AM,77.0,73.4,89,29.83,4.3,SSW,9.2,-,N/A,Rain,Light Rain Showers,200,2014-02-23 15:00:00
1:30 AM,78.8,73.4,83,29.80,5.6,SSW,8.1,-,N/A,,Mostly Cloudy,200,2014-02-23 15:30:00
2:00 AM,78.8,73.4,83,29.80,6.2,South,8.1,-,N/A,,Mostly Cloudy,190,2014-02-23 16:00:00
2:30 AM,77.0,73.4,89,29.80,6.2,SSE,10.4,-,N/A,,Mostly Cloudy,160,2014-02-23 16:30:00
2:54 AM,77.0,75.2,94,29.80,3.7,South,12.7,-,N/A,Rain,Light Rain Showers,170,2014-02-23 16:54:00
3:00 AM,77,75,90,29.81,4,SSE,11.5,,,,Overcast,160,2014-02-23 17:00:00
3:00 AM,77.0,75.2,94,29.80,3.1,SSE,11.5,-,N/A,Rain,Light Rain Showers,160,2014-02-23 17:00:00
3:30 AM,77.0,75.2,94,29.80,5.0,SSE,6.9,-,N/A,Rain,Light Rain Showers,160,2014-02-23 17:30:00
4:00 AM,77,75,91,29.81,,SSE,11.5,,,,,160,2014-02-23 18:00:00
4:00 AM,77.0,75.2,94,29.80,5.6,SSE,11.5,-,N/A,Rain,Light Rain Showers,160,2014-02-23 18:00:00
4:30 AM,77.0,73.4,89,29.80,5.6,South,10.4,-,N/A,,Mostly Cloudy,170,2014-02-23 18:30:00
5:00 AM,77.0,73.4,89,29.80,6.2,South,10.4,-,N/A,,Mostly Cloudy,170,2014-02-23 19:00:00
5:30 AM,77.0,73.4,89,29.80,6.2,South,15.0,-,N/A,,Mostly Cloudy,170,2014-02-23 19:30:00
6:00 AM,78,72,77,29.83,16,South,15.0,,,,Partly Cloudy,180,2014-02-23 20:00:00
6:00 AM,78.8,71.6,78,29.83,6.2,South,15.0,-,N/A,,Partly Cloudy,180,2014-02-23 20:00:00
6:30 AM,78.8,71.6,78,29.83,6.2,South,12.7,-,N/A,,Partly Cloudy,180,2014-02-23 20:30:00
7:00 AM,78,72,78,29.86,,South,13.8,,,,,170,2014-02-23 21:00:00
7:00 AM,78.8,71.6,78,29.86,6.2,South,13.8,-,N/A,,Scattered Clouds,170,2014-02-23 21:00:00
7:30 AM,78.8,71.6,78,29.86,6.2,SSE,13.8,-,N/A,,Scattered Clouds,160,2014-02-23 21:30:00
8:00 AM,80.6,71.6,74,29.86,6.2,South,11.5,-,N/A,,Scattered Clouds,170,2014-02-23 22:00:00
8:30 AM,82.4,73.4,74,29.86,6.2,SSE,13.8,-,N/A,,Scattered Clouds,160,2014-02-23 22:30:00
9:00 AM,83,73,64,29.88,16,South,13.8,,,,Partly Cloudy,170,2014-02-23 23:00:00
9:00 AM,82.4,73.4,74,29.89,6.2,South,13.8,-,N/A,,Scattered Clouds,170,2014-02-23 23:00:00
9:30 AM,84.2,73.4,70,29.89,6.2,SSE,15.0,-,N/A,,Partly Cloudy,150,2014-02-23 23:30:00
10:00 AM,84,73,62,29.89,,SSE,11.5,,,,,160,2014-02-24 00:00:00
10:00 AM,84.2,73.4,70,29.89,6.2,SSE,11.5,-,N/A,,Scattered Clouds,160,2014-02-24 00:00:00
10:30 AM,84.2,73.4,70,29.86,6.2,South,11.5,-,N/A,,Scattered Clouds,170,2014-02-24 00:30:00
11:00 AM,84.2,73.4,70,29.86,6.2,SSE,10.4,-,N/A,,Mostly Cloudy,150,2014-02-24 01:00:00
11:30 AM,84.2,71.6,66,29.86,6.2,SE,11.5,-,N/A,,Mostly Cloudy,140,2014-02-24 01:30:00
12:00 PM,83,72,63,29.86,6,SSE,13.8,,,Rain,Light Rain Showers,160,2014-02-24 02:00:00
12:00 PM,84.2,71.6,66,29.86,5.6,SSE,13.8,-,N/A,Rain,Light Rain Showers,160,2014-02-24 02:00:00
12:30 PM,82.4,75.2,79,29.83,6.2,South,8.1,-,N/A,,Mostly Cloudy,190,2014-02-24 02:30:00
1:00 PM,84,75,67,29.84,,South,8.1,,,,,180,2014-02-24 03:00:00
1:00 PM,84.2,75.2,74,29.83,6.2,South,8.1,-,N/A,,Mostly Cloudy,180,2014-02-24 03:00:00
1:30 PM,84.2,75.2,74,29.80,6.2,SE,13.8,-,N/A,,Scattered Clouds,130,2014-02-24 03:30:00
2:00 PM,86.0,73.4,66,29.80,6.2,SE,17.3,-,N/A,,Scattered Clouds,130,2014-02-24 04:00:00
2:30 PM,86.0,69.8,58,29.80,6.2,SSE,17.3,-,N/A,,Scattered Clouds,150,2014-02-24 04:30:00
3:00 PM,87,72,53,29.79,19,SSE,17.3,,,,Partly Cloudy,150,2014-02-24 05:00:00
3:00 PM,87.8,71.6,58,29.77,6.2,SSE,17.3,-,N/A,,Scattered Clouds,150,2014-02-24 05:00:00
3:30 PM,86.0,73.4,66,29.80,6.2,SE,18.4,-,N/A,,Mostly Cloudy,130,2014-02-24 05:30:00
4:00 PM,83,71,60,29.81,,SE,19.6,,,,,140,2014-02-24 06:00:00
4:00 PM,82.4,71.6,70,29.80,6.2,SE,19.6,-,N/A,,Mostly Cloudy,140,2014-02-24 06:00:00
4:30 PM,80.6,71.6,74,29.80,6.2,South,9.2,-,N/A,,Mostly Cloudy,190,2014-02-24 06:30:00
5:00 PM,82.4,73.4,74,29.80,6.2,South,11.5,-,N/A,,Mostly Cloudy,190,2014-02-24 07:00:00
5:30 PM,80.6,71.6,74,29.83,6.2,South,10.4,-,N/A,,Mostly Cloudy,170,2014-02-24 07:30:00
6:00 PM,78,72,78,29.84,,South,12.7,,,,Overcast,180,2014-02-24 08:00:00
6:00 PM,77.0,73.4,89,29.83,6.2,South,12.7,-,N/A,Rain,Light Rain Showers,180,2014-02-24 08:00:00
6:30 PM,78.8,71.6,78,29.83,6.2,South,10.4,-,N/A,,Mostly Cloudy,180,2014-02-24 08:30:00
7:00 PM,78,72,77,29.87,,South,9.2,,,,,190,2014-02-24 09:00:00
7:00 PM,78.8,71.6,78,29.86,6.2,South,9.2,-,N/A,,Mostly Cloudy,190,2014-02-24 09:00:00
7:30 PM,75.2,71.6,89,29.86,6.2,South,12.7,-,N/A,Rain,Light Rain Showers,170,2014-02-24 09:30:00
8:00 PM,77.0,71.6,83,29.86,6.2,SSW,11.5,-,N/A,,Mostly Cloudy,200,2014-02-24 10:00:00
8:30 PM,77.0,73.4,89,29.86,6.2,South,9.2,-,N/A,,Mostly Cloudy,170,2014-02-24 10:30:00
9:00 PM,77,72,81,29.88,,SSE,9.2,,,,Overcast,160,2014-02-24 11:00:00
9:00 PM,77.0,71.6,83,29.89,6.2,SSE,9.2,-,N/A,,Mostly Cloudy,160,2014-02-24 11:00:00
9:30 PM,75.2,73.4,94,29.89,6.2,SE,9.2,-,N/A,,Mostly Cloudy,130,2014-02-24 11:30:00
10:00 PM,76,73,86,29.89,,SE,8.1,,,,,140,2014-02-24 12:00:00
10:00 PM,77.0,73.4,89,29.89,6.2,SE,8.1,-,N/A,,Mostly Cloudy,140,2014-02-24 12:00:00
10:30 PM,77.0,71.6,83,29.89,6.2,South,9.2,-,N/A,,Scattered Clouds,170,2014-02-24 12:30:00
11:00 PM,75.2,73.4,94,29.89,6.2,ESE,9.2,-,N/A,,Partly Cloudy,120,2014-02-24 13:00:00
11:30 PM,77.0,71.6,83,29.86,6.2,SSE,10.4,-,N/A,,Unknown,160,2014-02-24 13:30:00